ROMMA est une association bénévole à but non lucratif. Votre soutien est indispensable : ADHERER à ROMMA ou FAIRE un DON

Trept - (38, Isère)

Plateau de Crémieu (265 m)   Longitude: 5° 19' 27" E   Latitude: 45° 41' 15"N Station partenaire n°94
 

Détail journalier du     <<     >>

Température Precipitation Humidité Pression Vent Dir Rafale Dir. rafale
Heure (°C) (mm) (%) (hPa) (km/h) (km/h)
01:00 19.707110161NO5NO
02:00 18.0077101603NO
03:00 18.507710161NO6OSO
04:00 17.807910161SO6ONO
05:00 17.107610161OSO5OSO
06:00 17.007110161OSO5OSO
07:00 16.107310162NO5OSO
08:00 15.1076101703NO
09:00 17.507310171ONO5ONO
10:00 20.705710172SE6SE
11:00 22.605410173SE11SO
12:00 24.805110175SO15OSO
13:00 26.104710167O21ONO
14:00 28.803110165ONO19O
15:00 29.602910157NE24NNE
16:00 29.202710157NNE23NO
17:00 29.402610148NNE24NE
18:00 27.603010147NNE19NE
19:00 26.104010146NNE19NNE
20:00 23.705010143NNE16NNE
21:00 22.405310145NNE18NNE
22:00 21.705610146NNE23NE
23:00 19.906510153NE15N
minuit 18.407310151NO6NE

Graphique du 17-09-2019

 

Serveur OMMA